Ana Sayfa
METAR-TAF:

METAR-TAF

Havaalanları :

Gove Peninsula, Avustralya

Enlem: 12-16-12S, Boylam: 136-49-06E, yükseklik: 62 m

Güncel hava durumu gözlemi

Rapor saat 09:00 UTC de 29 dakika önce yapıldı.
Rüzgar güneydoğudan 6 kt
Sıcaklık 23°C
Nem 65%
Basınç 1015 hPa
Görüş mesafesi 10 km veya daha fazla
4000 ft yükseklikte parçalı bulutlu

METAR: YPGV 250900Z AUTO 13006KT 9999 // SCT040 23/16 Q1015

Saat: 18:59 (09:29 UTC)

Tahmin

Rapor saat 06:11 UTC de 3 saat ve 18 dakika önce yapıldı.
Ayın 25'si saat 08 UTC'den ayın 25'si saat 20 UTC'ye kadar geçerli Tahmin
Rüzgar güneydoğudan 12 kt
Görüş mesafesi 10 km veya daha fazla
3000 ft yükseklikte parçalı bulutlu

TAF: YPGV 250611Z 2508/2520 13012KT 9999 SCT030

4.000'den fazla havaalanı için hava durumu gözlemleri ve tahminleri (METAR ve TAF raporları).

Kullanılabilir istasyonlar harita üzerinde sarı ve kırmızı noktalarla gösterilir.

İstasyonun adını görmek için fareyi noktanın üzerinde gezdirin.

Sonrasında hava gözlem ve tahminlerini görmek için tıklayın.

Haritayı değiştirmek için: yaklaştırmak için siyah artı işaretli yeşil düğmeye ve uzaklaştırmak için de eksi işaretli düğmeye hızla tıklayın; bitişik haritalar için yeşil okları kullanın.


METAR-TAF: